createdAt,value
2023-03-04T00:00:11.433Z,101283.47
2023-03-04T00:02:59.629Z,101281.38
2023-03-04T00:05:28.001Z,101285.44
2023-03-04T00:07:56.027Z,101281.09
2023-03-04T00:10:24.776Z,101271.47
2023-03-04T00:12:52.851Z,101287.16
2023-03-04T00:15:22.471Z,101279.31
2023-03-04T00:17:50.656Z,101279.00
2023-03-04T00:20:19.113Z,101276.09
2023-03-04T00:22:48.087Z,101288.88
2023-03-04T00:25:16.657Z,101283.34
2023-03-04T00:27:44.714Z,101285.97
2023-03-04T00:30:13.375Z,101280.25
2023-03-04T00:32:42.765Z,101282.69
2023-03-04T00:35:11.073Z,101287.78
2023-03-04T00:37:39.151Z,101290.44
2023-03-04T00:40:08.261Z,101293.88
2023-03-04T00:42:36.382Z,101296.81
2023-03-04T00:45:05.204Z,101300.56
2023-03-04T00:47:33.289Z,101299.75
2023-03-04T00:50:03.060Z,101301.72
2023-03-04T00:52:31.185Z,101304.69
2023-03-04T00:54:59.419Z,101295.72
2023-03-04T00:57:27.477Z,101302.09
2023-03-04T00:59:55.689Z,101294.41
2023-03-04T01:02:24.952Z,101290.97
2023-03-04T01:04:54.683Z,101300.81
2023-03-04T01:07:24.549Z,101287.91
2023-03-04T01:09:52.958Z,101301.13
2023-03-04T01:12:20.993Z,101298.22
2023-03-04T01:14:50.613Z,101294.91
2023-03-04T01:17:18.937Z,101303.41
2023-03-04T01:19:47.318Z,101294.56
2023-03-04T01:22:16.720Z,101297.22
2023-03-04T01:24:46.392Z,101290.81
2023-03-04T01:27:14.432Z,101291.97
2023-03-04T01:29:42.759Z,101295.75
2023-03-04T01:32:10.827Z,101286.59
2023-03-04T01:34:39.243Z,101284.50
2023-03-04T01:37:07.339Z,101282.84
2023-03-04T01:39:35.628Z,101277.00
2023-03-04T01:42:05.254Z,101283.19
2023-03-04T01:44:33.600Z,101273.44
2023-03-04T01:47:01.591Z,101259.91
2023-03-04T01:49:29.901Z,101271.81
2023-03-04T01:51:58.067Z,101273.75
2023-03-04T01:54:26.336Z,101275.03
2023-03-04T01:56:54.431Z,101261.97
2023-03-04T01:59:25.400Z,101271.81
2023-03-04T02:01:55.032Z,101262.16
2023-03-04T02:04:25.976Z,101259.72
2023-03-04T02:06:54.364Z,101264.94
2023-03-04T02:09:23.215Z,101265.13
2023-03-04T02:11:52.253Z,101264.44
2023-03-04T02:14:21.692Z,101259.06
2023-03-04T02:16:51.523Z,101264.31
2023-03-04T02:19:25.853Z,101255.97
2023-03-04T02:21:53.878Z,101257.66
2023-03-04T02:24:28.334Z,101264.66
2023-03-04T02:26:57.815Z,101256.81
2023-03-04T02:29:26.195Z,101250.63
2023-03-04T02:31:55.392Z,101249.00
2023-03-04T02:34:25.582Z,101256.34
2023-03-04T02:36:55.600Z,101245.09
2023-03-04T02:39:29.232Z,101251.28
2023-03-04T02:41:59.458Z,101246.38
2023-03-04T02:44:31.584Z,101239.22
2023-03-04T02:47:00.056Z,101242.78
2023-03-04T02:49:30.055Z,101252.94
2023-03-04T02:52:02.467Z,101254.88
2023-03-04T02:54:31.179Z,101248.81
2023-03-04T02:57:03.151Z,101249.97
2023-03-04T02:59:34.509Z,101241.50
2023-03-04T03:02:02.777Z,101244.28
2023-03-04T03:04:31.275Z,101242.63
2023-03-04T03:06:59.338Z,101235.63
2023-03-04T03:09:27.916Z,101240.19
2023-03-04T03:11:57.469Z,101236.31
2023-03-04T03:14:29.172Z,101227.00
2023-03-04T03:16:57.446Z,101227.81
2023-03-04T03:19:25.794Z,101231.41
2023-03-04T03:21:55.111Z,101224.56
2023-03-04T03:24:23.384Z,101229.13
2023-03-04T03:26:51.423Z,101236.63
2023-03-04T03:29:19.919Z,101228.97
2023-03-04T03:31:49.592Z,101231.41
2023-03-04T03:34:18.004Z,101235.00
2023-03-04T03:36:46.160Z,101230.91
2023-03-04T03:39:15.590Z,101232.72
2023-03-04T03:41:43.661Z,101237.44
2023-03-04T03:44:12.044Z,101245.78
2023-03-04T03:46:40.244Z,101243.81
2023-03-04T03:49:09.866Z,101246.28
2023-03-04T03:51:37.870Z,101245.13
2023-03-04T03:54:06.176Z,101242.19
2023-03-04T03:56:34.148Z,101239.72
2023-03-04T03:59:02.630Z,101247.06
2023-03-04T04:01:30.724Z,101248.06
2023-03-04T04:03:59.006Z,101246.72
2023-03-04T04:06:28.699Z,101249.66
2023-03-04T04:08:57.008Z,101244.78
2023-03-04T04:11:25.060Z,101253.75
2023-03-04T04:13:53.356Z,101254.25
2023-03-04T04:16:21.538Z,101247.06
2023-03-04T04:18:49.875Z,101251.47
2023-03-04T04:21:17.955Z,101241.22
2023-03-04T04:23:47.564Z,101246.44
2023-03-04T04:26:15.630Z,101241.84
2023-03-04T04:28:43.914Z,101239.09
2023-03-04T04:31:12.057Z,101241.22
2023-03-04T04:33:40.379Z,101245.78
2023-03-04T04:36:10.960Z,101243.44
2023-03-04T04:38:39.205Z,101250.47
2023-03-04T04:41:17.682Z,101247.53
2023-03-04T04:43:45.935Z,101256.78
2023-03-04T04:46:14.014Z,101252.25
2023-03-04T04:48:42.360Z,101253.53
2023-03-04T04:51:10.407Z,101254.34
2023-03-04T04:53:38.926Z,101254.84
2023-03-04T04:56:13.101Z,101260.38
2023-03-04T04:58:41.609Z,101258.56
2023-03-04T05:01:09.800Z,101251.88
2023-03-04T05:03:38.915Z,101262.72
2023-03-04T05:06:08.874Z,101256.41
2023-03-04T05:08:37.385Z,101260.44
2023-03-04T05:11:06.708Z,101260.38
2023-03-04T05:13:36.324Z,101265.59
2023-03-04T05:16:05.162Z,101267.56
2023-03-04T05:18:33.533Z,101270.19
2023-03-04T05:21:03.157Z,101263.03
2023-03-04T05:23:33.822Z,101269.59
2023-03-04T05:26:02.042Z,101261.59
2023-03-04T05:28:30.742Z,101258.31
2023-03-04T05:31:00.680Z,101256.22
2023-03-04T05:33:29.125Z,101256.53
2023-03-04T05:35:57.384Z,101255.06
2023-03-04T05:38:26.923Z,101250.00
2023-03-04T05:40:57.880Z,101247.53
2023-03-04T05:43:26.387Z,101250.97
2023-03-04T05:45:54.433Z,101252.28
2023-03-04T05:48:24.256Z,101251.28
2023-03-04T05:50:54.742Z,101261.41
2023-03-04T05:53:23.131Z,101253.22
2023-03-04T05:55:51.421Z,101248.47
2023-03-04T05:58:20.136Z,101255.84
2023-03-04T06:00:48.646Z,101256.78
2023-03-04T06:03:17.643Z,101253.53
2023-03-04T06:05:47.086Z,101255.25
2023-03-04T06:08:16.656Z,101266.88
2023-03-04T06:10:44.683Z,101270.09
2023-03-04T06:13:13.144Z,101272.09
2023-03-04T06:15:41.575Z,101273.88
2023-03-04T06:18:10.142Z,101273.19
2023-03-04T06:20:38.502Z,101280.50
2023-03-04T06:23:08.266Z,101280.16
2023-03-04T06:25:36.470Z,101281.53
2023-03-04T06:28:04.942Z,101283.16
2023-03-04T06:30:32.969Z,101278.56
2023-03-04T06:33:01.247Z,101282.81
2023-03-04T06:35:29.508Z,101280.19
2023-03-04T06:37:57.789Z,101295.19
2023-03-04T06:40:27.263Z,101294.84
2023-03-04T06:42:55.651Z,101300.41
2023-03-04T06:45:23.724Z,101304.97
2023-03-04T06:47:51.982Z,101309.53
2023-03-04T06:50:20.292Z,101304.31
2023-03-04T06:52:49.354Z,101304.63
2023-03-04T06:55:17.565Z,101311.16
2023-03-04T06:57:48.628Z,101309.19
2023-03-04T07:00:18.117Z,101317.00
2023-03-04T07:02:46.503Z,101314.38
2023-03-04T07:05:15.145Z,101324.50
2023-03-04T07:07:43.477Z,101325.06
2023-03-04T07:10:12.496Z,101318.19
2023-03-04T07:12:40.851Z,101318.19
2023-03-04T07:15:11.535Z,101314.25
2023-03-04T07:17:39.870Z,101317.47
2023-03-04T07:20:08.785Z,101309.28
2023-03-04T07:22:37.279Z,101330.03
2023-03-04T07:25:06.510Z,101320.88
2023-03-04T07:27:34.923Z,101323.63
2023-03-04T07:30:03.238Z,101319.75
2023-03-04T07:32:34.422Z,101323.00
2023-03-04T07:35:03.477Z,101328.28
2023-03-04T07:37:31.922Z,101324.06
2023-03-04T07:40:00.006Z,101339.63
2023-03-04T07:42:28.810Z,101341.75
2023-03-04T07:45:05.433Z,101343.59
2023-03-04T07:47:35.169Z,101356.78
2023-03-04T07:50:03.443Z,101342.59
2023-03-04T07:52:31.778Z,101346.47
2023-03-04T07:54:59.831Z,101344.19
2023-03-04T07:57:28.141Z,101350.44
2023-03-04T07:59:56.214Z,101342.91
2023-03-04T08:02:24.608Z,101349.09
2023-03-04T08:04:54.128Z,101352.44
2023-03-04T08:07:22.490Z,101352.13
2023-03-04T08:09:50.732Z,101347.66
2023-03-04T08:12:19.248Z,101354.44
2023-03-04T08:14:47.483Z,101344.34
2023-03-04T08:17:15.937Z,101346.00
2023-03-04T08:19:44.005Z,101350.47
2023-03-04T08:22:13.779Z,101357.31
2023-03-04T08:24:41.827Z,101358.00
2023-03-04T08:27:10.328Z,101358.38
2023-03-04T08:29:38.406Z,101351.63
2023-03-04T08:32:07.204Z,101353.88
2023-03-04T08:34:35.346Z,101354.66
2023-03-04T08:37:03.675Z,101360.03
2023-03-04T08:39:33.303Z,101365.53
2023-03-04T08:42:01.825Z,101336.13
2023-03-04T08:44:29.882Z,101352.56
2023-03-04T08:46:58.402Z,101350.69
2023-03-04T08:49:26.468Z,101346.13
2023-03-04T08:51:54.823Z,101352.94
2023-03-04T08:54:22.866Z,101357.72
2023-03-04T08:56:52.496Z,101354.91
2023-03-04T08:59:20.617Z,101344.91
2023-03-04T09:01:48.976Z,101358.06
2023-03-04T09:04:17.067Z,101354.22
2023-03-04T09:06:45.389Z,101353.44
2023-03-04T09:09:13.425Z,101359.84
2023-03-04T09:11:41.796Z,101367.00
2023-03-04T09:14:11.186Z,101359.44
2023-03-04T09:16:39.441Z,101348.66
2023-03-04T09:19:07.529Z,101358.53
2023-03-04T09:21:35.899Z,101357.00
2023-03-04T09:24:04.235Z,101358.31
2023-03-04T09:26:32.647Z,101364.69
2023-03-04T09:29:02.556Z,101354.13
2023-03-04T09:31:32.950Z,101364.56
2023-03-04T09:34:01.331Z,101364.78
2023-03-04T09:36:29.653Z,101358.03
2023-03-04T09:39:00.482Z,101348.47
2023-03-04T09:41:38.823Z,101347.88
2023-03-04T09:44:13.426Z,101352.66
2023-03-04T09:46:44.806Z,101355.19
2023-03-04T09:49:13.665Z,101346.75
2023-03-04T09:51:47.210Z,101355.06
2023-03-04T09:54:19.900Z,101363.31
2023-03-04T09:56:50.644Z,101366.25
2023-03-04T09:59:24.664Z,101374.03
2023-03-04T10:01:56.024Z,101367.22
2023-03-04T10:04:32.339Z,101369.44
2023-03-04T10:07:01.684Z,101373.25
2023-03-04T10:09:31.435Z,101367.84
2023-03-04T10:12:02.768Z,101371.47
2023-03-04T10:14:39.856Z,101375.84
2023-03-04T10:17:15.058Z,101375.47
2023-03-04T10:19:52.783Z,101374.19
2023-03-04T10:22:27.193Z,101364.78
2023-03-04T10:24:57.636Z,101374.94
2023-03-04T10:27:26.044Z,101366.75
2023-03-04T10:29:54.306Z,101367.16
2023-03-04T10:32:24.265Z,101369.50
2023-03-04T10:34:52.333Z,101373.91
2023-03-04T10:37:20.590Z,101368.41
2023-03-04T10:39:49.521Z,101365.38
2023-03-04T10:42:27.729Z,101365.38
2023-03-04T10:44:57.608Z,101365.88
2023-03-04T10:47:28.779Z,101361.47
2023-03-04T10:49:58.291Z,101356.13
2023-03-04T10:52:30.002Z,101359.09
2023-03-04T10:54:59.788Z,101359.19
2023-03-04T10:57:34.351Z,101353.59
2023-03-04T11:00:02.648Z,101346.81
2023-03-04T11:02:34.818Z,101345.97
2023-03-04T11:05:18.640Z,101341.00
2023-03-04T11:07:55.657Z,101339.28
2023-03-04T11:10:26.695Z,101336.88
2023-03-04T11:12:58.079Z,101334.34
2023-03-04T11:15:28.260Z,101340.81
2023-03-04T11:18:00.496Z,101330.69
2023-03-04T11:20:33.288Z,101328.84
2023-03-04T11:23:05.151Z,101323.53
2023-03-04T11:25:36.208Z,101315.06
2023-03-04T11:28:08.797Z,101315.84
2023-03-04T11:30:42.155Z,101312.84
2023-03-04T11:33:16.572Z,101307.25
2023-03-04T11:35:53.292Z,101301.84
2023-03-04T11:38:23.113Z,101301.72
2023-03-04T11:40:54.384Z,101294.00
2023-03-04T11:43:26.730Z,101297.69
2023-03-04T11:46:33.399Z,101297.94
2023-03-04T11:49:12.424Z,101308.41
2023-03-04T11:51:44.947Z,101281.63
2023-03-04T11:54:18.824Z,101296.56
2023-03-04T11:56:49.451Z,101293.63
2023-03-04T11:59:49.488Z,101285.75
2023-03-04T12:02:20.374Z,101292.72
2023-03-04T12:05:17.410Z,101286.59
2023-03-04T12:07:58.934Z,101285.22
2023-03-04T12:10:30.243Z,101281.34
2023-03-04T12:13:11.064Z,101275.69
2023-03-04T12:15:46.942Z,101266.41
2023-03-04T12:18:43.732Z,101257.97
2023-03-04T12:21:21.009Z,101254.94
2023-03-04T12:24:04.302Z,101247.84
2023-03-04T12:26:37.859Z,101256.97
2023-03-04T12:29:08.942Z,101252.53
2023-03-04T12:31:39.927Z,101255.66
2023-03-04T12:34:33.569Z,101252.59
2023-03-04T12:37:22.997Z,101253.25
2023-03-04T12:40:01.481Z,101248.56
2023-03-04T12:42:39.029Z,101240.44
2023-03-04T12:45:17.803Z,101240.22
2023-03-04T12:47:53.415Z,101241.28
2023-03-04T12:50:31.419Z,101233.19
2023-03-04T12:53:10.954Z,101230.13
2023-03-04T12:55:40.456Z,101226.28
2023-03-04T12:58:16.358Z,101225.53
2023-03-04T13:00:50.587Z,101230.34
2023-03-04T13:03:23.313Z,101225.50
2023-03-04T13:06:28.048Z,101222.84
2023-03-04T13:09:02.139Z,101223.47
2023-03-04T13:11:52.696Z,101227.09
2023-03-04T13:14:29.571Z,101225.50
2023-03-04T13:17:01.526Z,101213.31
2023-03-04T13:19:52.546Z,101222.47
2023-03-04T13:22:34.216Z,101218.78
2023-03-04T13:25:37.759Z,101214.94
2023-03-04T13:28:33.000Z,101216.13
2023-03-04T13:31:14.981Z,101211.91
2023-03-04T13:34:01.948Z,101210.50
2023-03-04T13:36:55.919Z,101207.66
2023-03-04T13:39:34.792Z,101206.03
2023-03-04T13:42:06.540Z,101208.47
2023-03-04T13:45:04.920Z,101197.31
2023-03-04T13:47:48.618Z,101199.53
2023-03-04T13:50:31.641Z,101193.50
2023-03-04T13:53:02.615Z,101195.91
2023-03-04T13:55:39.196Z,101192.66
2023-03-04T13:58:24.232Z,101181.34
2023-03-04T14:00:55.132Z,101190.28
2023-03-04T14:03:25.812Z,101191.50
2023-03-04T14:06:17.890Z,101191.50
2023-03-04T14:08:46.904Z,101179.72
2023-03-04T14:11:16.883Z,101188.44
2023-03-04T14:13:46.593Z,101181.75
2023-03-04T14:16:20.901Z,101184.13
2023-03-04T14:18:59.076Z,101172.22
2023-03-04T14:21:27.146Z,101175.47
2023-03-04T14:24:07.374Z,101169.16
2023-03-04T14:26:35.989Z,101170.56
2023-03-04T14:29:26.971Z,101168.53
2023-03-04T14:31:55.721Z,101162.63
2023-03-04T14:34:31.977Z,101165.72
2023-03-04T14:37:00.190Z,101165.53
2023-03-04T14:39:31.460Z,101169.59
2023-03-04T14:42:02.347Z,101165.16
2023-03-04T14:44:36.172Z,101155.84
2023-03-04T14:47:11.380Z,101158.25
2023-03-04T14:49:40.318Z,101151.78
2023-03-04T14:52:13.769Z,101147.69
2023-03-04T14:54:42.870Z,101141.59
2023-03-04T14:57:26.346Z,101146.66
2023-03-04T14:59:56.203Z,101141.00
2023-03-04T15:02:31.467Z,101134.84
2023-03-04T15:05:01.829Z,101136.75
2023-03-04T15:07:33.200Z,101140.38
2023-03-04T15:10:04.471Z,101138.34
2023-03-04T15:12:34.191Z,101118.63
2023-03-04T15:15:05.841Z,101135.88
2023-03-04T15:17:38.643Z,101129.03
2023-03-04T15:20:27.204Z,101120.53
2023-03-04T15:23:00.825Z,101117.91
2023-03-04T15:25:29.738Z,101121.06
2023-03-04T15:28:00.005Z,101118.66
2023-03-04T15:30:33.217Z,101118.81
2023-03-04T15:33:01.801Z,101117.78
2023-03-04T15:35:32.555Z,101120.16
2023-03-04T15:38:01.534Z,101114.03
2023-03-04T15:40:32.357Z,101116.41
2023-03-04T15:43:02.870Z,101111.97
2023-03-04T15:45:35.935Z,101109.53
2023-03-04T15:48:07.774Z,101110.38
2023-03-04T15:50:37.590Z,101109.78
2023-03-04T15:53:08.283Z,101102.22
2023-03-04T15:55:36.992Z,101108.06
2023-03-04T15:58:05.553Z,101108.63
2023-03-04T16:00:35.276Z,101099.56
2023-03-04T16:03:03.385Z,101109.69
2023-03-04T16:05:32.122Z,101110.72
2023-03-04T16:08:00.189Z,101108.28
2023-03-04T16:10:30.663Z,101113.09
2023-03-04T16:12:58.750Z,101110.97
2023-03-04T16:15:28.954Z,101107.53
2023-03-04T16:17:59.656Z,101100.63
2023-03-04T16:20:29.928Z,101103.13
2023-03-04T16:23:00.066Z,101101.47
2023-03-04T16:25:30.171Z,101096.59
2023-03-04T16:28:02.650Z,101100.25
2023-03-04T16:30:31.484Z,101091.72
2023-03-04T16:33:00.858Z,101093.75
2023-03-04T16:35:29.714Z,101091.72
2023-03-04T16:37:58.511Z,101094.75
2023-03-04T16:40:29.690Z,101101.47
2023-03-04T16:42:58.103Z,101096.00
2023-03-04T16:45:30.114Z,101094.59
2023-03-04T16:47:59.549Z,101096.97
2023-03-04T16:50:30.335Z,101096.59
2023-03-04T16:52:58.339Z,101082.41
2023-03-04T16:55:28.523Z,101094.94
2023-03-04T16:57:57.679Z,101096.97
2023-03-04T17:00:28.982Z,101101.63
2023-03-04T17:13:26.179Z,101093.78
2023-03-04T17:15:54.621Z,101104.69
2023-03-04T17:18:22.687Z,101097.19
2023-03-04T17:20:57.228Z,101107.31
2023-03-04T17:23:39.727Z,101104.31
2023-03-04T17:26:09.189Z,101101.91
2023-03-04T17:28:39.065Z,101105.13
2023-03-04T17:31:40.445Z,101100.25
2023-03-04T17:34:14.546Z,101103.97
2023-03-04T17:36:42.954Z,101104.16
2023-03-04T17:39:12.389Z,101102.25
2023-03-04T17:41:40.990Z,101111.97
2023-03-04T17:44:11.494Z,101110.13
2023-03-04T17:46:40.153Z,101109.13
2023-03-04T17:49:08.244Z,101105.47
2023-03-04T17:51:37.927Z,101107.50
2023-03-04T17:54:08.413Z,101091.88
2023-03-04T17:56:38.001Z,101102.22
2023-03-04T17:59:09.721Z,101088.84
2023-03-04T18:01:39.711Z,101095.34
2023-03-04T18:04:08.290Z,101090.50
2023-03-04T18:06:36.709Z,101104.28
2023-03-04T18:09:05.158Z,101097.00
2023-03-04T18:11:34.688Z,101100.25
2023-03-04T18:14:02.825Z,101097.47
2023-03-04T18:16:31.560Z,101093.38
2023-03-04T18:19:02.185Z,101086.13
2023-03-04T18:21:30.898Z,101080.91
2023-03-04T18:23:59.505Z,101075.44
2023-03-04T18:26:28.221Z,101076.44
2023-03-04T18:28:57.034Z,101069.56
2023-03-04T18:31:31.064Z,101061.03
2023-03-04T18:34:02.200Z,101070.34
2023-03-04T18:36:30.636Z,101079.66
2023-03-04T18:38:59.445Z,101061.66
2023-03-04T18:41:28.321Z,101080.50
2023-03-04T18:43:56.964Z,101074.41
2023-03-04T18:46:31.908Z,101066.31
2023-03-04T18:49:04.296Z,101079.47
2023-03-04T18:51:32.744Z,101071.78
2023-03-04T18:54:00.764Z,101071.16
2023-03-04T18:56:37.611Z,101078.78
2023-03-04T18:59:08.738Z,101076.78
2023-03-04T19:01:37.937Z,101070.38
2023-03-04T19:04:07.476Z,101073.78
2023-03-04T19:06:36.383Z,101069.56
2023-03-04T19:09:05.387Z,101070.38
2023-03-04T19:11:33.646Z,101070.97
2023-03-04T19:14:01.840Z,101070.19
2023-03-04T19:16:30.308Z,101067.53
2023-03-04T19:18:58.546Z,101077.25
2023-03-04T19:21:28.274Z,101076.03
2023-03-04T19:23:56.324Z,101070.75
2023-03-04T19:26:24.704Z,101073.81
2023-03-04T19:28:52.712Z,101070.38
2023-03-04T19:31:21.112Z,101074.00
2023-03-04T19:33:49.279Z,101074.22
2023-03-04T19:36:17.590Z,101067.13
2023-03-04T19:38:47.011Z,101073.59
2023-03-04T19:41:17.165Z,101062.66
2023-03-04T19:43:46.035Z,101069.97
2023-03-04T19:46:15.222Z,101064.69
2023-03-04T19:48:45.031Z,101071.94
2023-03-04T19:51:16.709Z,101065.44
2023-03-04T19:53:44.972Z,101064.69
2023-03-04T19:56:14.757Z,101061.03
2023-03-04T19:58:42.853Z,101054.91
2023-03-04T20:01:21.184Z,101059.00
2023-03-04T20:03:49.421Z,101060.81
2023-03-04T20:06:17.757Z,101052.13
2023-03-04T20:08:45.805Z,101047.25
2023-03-04T20:11:15.530Z,101050.91
2023-03-04T20:13:43.752Z,101050.50
2023-03-04T20:16:12.694Z,101054.94
2023-03-04T20:18:41.044Z,101047.66
2023-03-04T20:21:12.493Z,101054.13
2023-03-04T20:23:40.667Z,101059.03
2023-03-04T20:26:09.007Z,101060.84
2023-03-04T20:28:51.636Z,101059.88
2023-03-04T20:31:22.650Z,101067.75
2023-03-04T20:33:51.603Z,101066.53
2023-03-04T20:36:21.160Z,101056.63
2023-03-04T20:38:51.264Z,101057.03
2023-03-04T20:41:25.318Z,101042.81
2023-03-04T20:43:54.815Z,101050.28
2023-03-04T20:46:32.317Z,101065.66
2023-03-04T20:49:02.238Z,101054.94
2023-03-04T20:51:31.871Z,101053.72
2023-03-04T20:54:00.830Z,101048.28
2023-03-04T20:56:29.606Z,101050.13
2023-03-04T20:58:59.448Z,101052.97
2023-03-04T21:01:27.875Z,101052.13
2023-03-04T21:03:56.089Z,101051.31
2023-03-04T21:06:25.176Z,101047.66
2023-03-04T21:08:53.506Z,101055.34
2023-03-04T21:11:23.339Z,101056.56
2023-03-04T21:13:55.997Z,101046.44
2023-03-04T21:16:27.206Z,101045.03
2023-03-04T21:18:55.511Z,101047.66
2023-03-04T21:21:26.035Z,101049.72
2023-03-04T21:23:55.406Z,101043.25
2023-03-04T21:26:24.151Z,101045.47
2023-03-04T21:28:52.622Z,101045.28
2023-03-04T21:31:23.020Z,101043.25
2023-03-04T21:33:53.138Z,101034.75
2023-03-04T21:36:22.058Z,101031.91
2023-03-04T21:38:50.575Z,101038.00
2023-03-04T21:41:21.420Z,101040.44
2023-03-04T21:43:49.932Z,101032.94
2023-03-04T21:46:19.070Z,101033.34
2023-03-04T21:48:48.214Z,101035.97
2023-03-04T21:51:19.725Z,101029.09
2023-03-04T21:53:47.952Z,101038.81
2023-03-04T21:56:16.329Z,101033.56
2023-03-04T21:58:45.809Z,101020.56
2023-03-04T22:01:15.417Z,101030.31
2023-03-04T22:03:43.757Z,101026.66
2023-03-04T22:06:13.373Z,101024.44
2023-03-04T22:08:42.952Z,101022.63
2023-03-04T22:11:12.461Z,101023.56
2023-03-04T22:13:40.823Z,101019.78
2023-03-04T22:16:10.587Z,101020.94
2023-03-04T22:18:40.658Z,101023.38
2023-03-04T22:21:11.054Z,101014.72
2023-03-04T22:23:39.699Z,101016.50
2023-03-04T22:26:12.569Z,101014.09
2023-03-04T22:28:41.266Z,101014.09
2023-03-04T22:31:21.212Z,101013.25
2023-03-04T22:33:49.305Z,101003.56
2023-03-04T22:36:17.611Z,101009.63
2023-03-04T22:38:45.805Z,101012.47
2023-03-04T22:41:16.820Z,101011.66
2023-03-04T22:43:49.748Z,101001.13
2023-03-04T22:46:20.637Z,101004.59
2023-03-04T22:48:49.075Z,101004.22
2023-03-04T22:51:17.407Z,101007.81
2023-03-04T22:53:45.800Z,100998.75
2023-03-04T22:56:15.653Z,100984.56
2023-03-04T22:58:44.331Z,101000.34
2023-03-04T23:01:14.359Z,100998.34
2023-03-04T23:03:44.198Z,101008.03
2023-03-04T23:06:14.432Z,101000.16
2023-03-04T23:08:44.831Z,100998.75
2023-03-04T23:11:16.980Z,101001.19
2023-03-04T23:13:45.188Z,100996.72
2023-03-04T23:16:14.266Z,101003.19
2023-03-04T23:18:43.388Z,100991.47
2023-03-04T23:21:14.595Z,100995.91
2023-03-04T23:23:43.263Z,100991.06
2023-03-04T23:26:16.434Z,100993.06
2023-03-04T23:28:44.935Z,100996.91
2023-03-04T23:31:14.627Z,100997.94
2023-03-04T23:33:43.352Z,100992.25
2023-03-04T23:36:15.225Z,100993.69
2023-03-04T23:38:44.346Z,100992.66
2023-03-04T23:41:13.643Z,100987.41
2023-03-04T23:43:43.270Z,100987.81
2023-03-04T23:46:12.393Z,100989.84
2023-03-04T23:48:43.124Z,100982.56
2023-03-04T23:51:11.567Z,100984.97
2023-03-04T23:53:39.762Z,100983.38
2023-03-04T23:56:09.190Z,100985.38
2023-03-04T23:58:37.581Z,100983.75
